createdAt,value
2022-10-26T00:02:14.991Z,7.53
2022-10-26T00:05:11.891Z,4.80
2022-10-26T00:08:09.075Z,6.80
2022-10-26T00:11:07.093Z,7.28
2022-10-26T00:14:03.946Z,6.82
2022-10-26T00:17:00.762Z,5.95
2022-10-26T00:19:57.865Z,3.75
2022-10-26T00:22:54.647Z,3.92
2022-10-26T00:25:56.889Z,4.22
2022-10-26T00:28:55.660Z,3.88
2022-10-26T00:31:52.474Z,2.92
2022-10-26T00:34:49.267Z,3.20
2022-10-26T00:37:46.265Z,4.13
2022-10-26T00:40:44.382Z,6.18
2022-10-26T00:43:41.259Z,4.28
2022-10-26T00:46:39.093Z,7.28
2022-10-26T00:49:36.175Z,6.85
2022-10-26T00:52:33.658Z,4.70
2022-10-26T00:55:37.293Z,2.45
2022-10-26T00:58:35.685Z,4.22
2022-10-26T01:01:36.155Z,6.32
2022-10-26T01:04:34.058Z,2.70
2022-10-26T01:07:31.421Z,3.05
2022-10-26T01:10:28.912Z,2.78
2022-10-26T01:13:31.380Z,3.33
2022-10-26T01:16:52.261Z,2.13
2022-10-26T01:23:59.781Z,2.33
2022-10-26T01:27:12.552Z,4.20
2022-10-26T01:30:25.254Z,5.80
2022-10-26T01:33:35.086Z,3.45
2022-10-26T01:37:00.053Z,5.28
2022-10-26T01:40:27.681Z,5.50
2022-10-26T01:43:28.426Z,1.73
2022-10-26T01:49:32.588Z,5.50
2022-10-26T01:52:29.587Z,2.00
2022-10-26T01:55:50.996Z,3.22
2022-10-26T01:59:09.858Z,2.55
2022-10-26T02:02:51.192Z,2.53
2022-10-26T02:06:41.106Z,1.95
2022-10-26T02:10:06.284Z,2.38
2022-10-26T02:13:24.673Z,3.65
2022-10-26T02:16:48.951Z,1.92
2022-10-26T02:20:08.938Z,5.10
2022-10-26T02:23:08.118Z,3.43
2022-10-26T02:26:10.176Z,4.47
2022-10-26T02:29:13.858Z,2.38
2022-10-26T02:32:12.084Z,2.92
2022-10-26T02:35:09.714Z,2.17
2022-10-26T02:38:12.118Z,2.55
2022-10-26T02:41:10.671Z,6.38
2022-10-26T02:44:14.710Z,3.75
2022-10-26T02:47:12.078Z,2.65
2022-10-26T02:50:09.764Z,2.63
2022-10-26T02:53:50.881Z,1.80
2022-10-26T03:00:16.505Z,7.03
2022-10-26T03:03:14.632Z,5.32
2022-10-26T03:06:11.495Z,4.10
2022-10-26T03:09:08.317Z,5.85
2022-10-26T03:12:05.567Z,4.55
2022-10-26T03:15:04.088Z,4.68
2022-10-26T03:18:01.087Z,3.53
2022-10-26T03:20:58.001Z,3.17
2022-10-26T03:23:55.094Z,4.43
2022-10-26T03:26:51.931Z,7.65
2022-10-26T03:29:48.927Z,1.63
2022-10-26T03:32:45.730Z,7.68
2022-10-26T03:35:42.703Z,2.33
2022-10-26T03:38:39.566Z,4.90
2022-10-26T03:41:36.380Z,4.65
2022-10-26T03:44:33.198Z,4.10
2022-10-26T03:47:30.058Z,3.85
2022-10-26T03:50:26.926Z,4.80
2022-10-26T03:53:23.852Z,6.97
2022-10-26T03:56:20.656Z,2.95
2022-10-26T03:59:17.463Z,6.82
2022-10-26T04:02:15.206Z,4.53
2022-10-26T04:05:12.291Z,5.07
2022-10-26T04:08:09.398Z,3.20
2022-10-26T04:11:06.520Z,3.35
2022-10-26T04:14:03.359Z,6.80
2022-10-26T04:17:00.310Z,4.90
2022-10-26T04:19:57.140Z,5.22
2022-10-26T04:22:59.577Z,3.97
2022-10-26T04:25:56.383Z,3.28
2022-10-26T04:28:53.663Z,4.75
2022-10-26T04:31:50.480Z,7.95
2022-10-26T04:34:47.315Z,3.33
2022-10-26T04:37:44.242Z,4.68
2022-10-26T04:40:41.250Z,5.85
2022-10-26T04:43:38.069Z,6.90
2022-10-26T04:46:34.988Z,3.92
2022-10-26T04:49:31.809Z,4.13
2022-10-26T04:52:28.635Z,2.80
2022-10-26T04:55:25.652Z,2.75
2022-10-26T04:58:22.457Z,4.82
2022-10-26T05:01:19.407Z,5.60
2022-10-26T05:04:16.397Z,5.00
2022-10-26T05:07:13.213Z,6.18
2022-10-26T05:10:10.638Z,9.27
2022-10-26T05:13:09.266Z,7.30
2022-10-26T05:16:06.513Z,5.80
2022-10-26T05:19:03.461Z,4.80
2022-10-26T05:22:00.253Z,5.43
2022-10-26T05:24:57.070Z,6.40
2022-10-26T05:27:59.509Z,7.13
2022-10-26T05:30:59.134Z,7.00
2022-10-26T05:33:56.032Z,8.13
2022-10-26T05:36:54.728Z,5.78
2022-10-26T05:39:51.512Z,6.47
2022-10-26T05:42:48.640Z,6.72
2022-10-26T05:45:46.727Z,7.72
2022-10-26T05:48:47.081Z,8.15
2022-10-26T05:51:43.977Z,8.15
2022-10-26T05:54:40.779Z,5.85
2022-10-26T05:57:38.849Z,6.53
2022-10-26T06:00:37.010Z,4.18
2022-10-26T06:04:02.273Z,23.83
2022-10-26T06:06:59.877Z,18.15
2022-10-26T06:09:57.495Z,25.88
2022-10-26T06:12:54.719Z,21.90
2022-10-26T06:16:00.163Z,23.85
2022-10-26T06:19:29.933Z,14.23
2022-10-26T06:23:01.201Z,9.77
2022-10-26T06:26:16.445Z,5.70
2022-10-26T06:30:00.808Z,9.65
2022-10-26T06:33:05.620Z,12.27
2022-10-26T06:36:29.186Z,12.63
2022-10-26T06:39:35.386Z,13.65
2022-10-26T06:42:32.791Z,17.27
2022-10-26T06:45:30.250Z,7.45
2022-10-26T06:48:29.463Z,9.25
2022-10-26T06:51:29.179Z,8.70
2022-10-26T06:54:51.859Z,8.25
2022-10-26T06:57:50.142Z,7.60
2022-10-26T07:00:50.996Z,5.63
2022-10-26T07:03:47.862Z,7.88
2022-10-26T07:06:44.725Z,10.95
2022-10-26T07:09:41.596Z,12.10
2022-10-26T07:12:38.831Z,13.38
2022-10-26T07:15:37.713Z,8.85
2022-10-26T07:18:34.492Z,7.40
2022-10-26T07:21:31.309Z,8.20
2022-10-26T07:24:29.367Z,6.97
2022-10-26T07:27:26.219Z,9.52
2022-10-26T07:30:23.102Z,13.48
2022-10-26T07:33:20.003Z,8.40
2022-10-26T07:36:17.076Z,7.80
2022-10-26T07:39:13.937Z,11.43
2022-10-26T07:42:10.755Z,8.82
2022-10-26T07:45:08.061Z,6.00
2022-10-26T07:48:05.461Z,9.85
2022-10-26T07:51:03.235Z,4.93
2022-10-26T07:54:00.193Z,7.20
2022-10-26T07:56:58.186Z,6.43
2022-10-26T07:59:55.502Z,3.90
2022-10-26T08:02:52.511Z,6.53
2022-10-26T08:05:51.341Z,5.70
2022-10-26T08:08:48.699Z,6.45
2022-10-26T08:11:45.769Z,5.72
2022-10-26T08:14:43.662Z,4.82
2022-10-26T08:17:40.840Z,10.15
2022-10-26T08:20:37.662Z,7.40
2022-10-26T08:23:34.626Z,10.32
2022-10-26T08:26:31.516Z,8.85
2022-10-26T08:29:28.457Z,7.03
2022-10-26T08:32:25.683Z,9.98
2022-10-26T08:35:22.537Z,10.93
2022-10-26T08:38:19.457Z,9.30
2022-10-26T08:41:16.365Z,10.63
2022-10-26T08:44:41.702Z,7.57
2022-10-26T08:47:46.463Z,8.95
2022-10-26T08:50:56.554Z,4.97
2022-10-26T08:54:14.242Z,6.50
2022-10-26T08:57:35.674Z,4.38
2022-10-26T09:00:32.696Z,6.18
2022-10-26T09:03:29.526Z,8.10
2022-10-26T09:07:11.080Z,12.88
2022-10-26T09:10:41.280Z,12.32
2022-10-26T09:14:06.067Z,8.33
2022-10-26T09:17:21.226Z,11.63
2022-10-26T09:20:55.122Z,7.72
2022-10-26T09:24:16.011Z,4.28
2022-10-26T09:30:25.145Z,5.22
2022-10-26T09:33:26.527Z,4.95
2022-10-26T09:36:23.371Z,5.55
2022-10-26T09:39:40.758Z,7.93
2022-10-26T09:43:16.841Z,5.55
2022-10-26T09:46:24.625Z,3.60
2022-10-26T09:49:33.010Z,7.13
2022-10-26T09:52:29.892Z,5.90
2022-10-26T09:55:27.792Z,8.25
2022-10-26T09:58:31.586Z,7.72
2022-10-26T10:01:38.508Z,8.55
2022-10-26T10:04:47.738Z,5.15
2022-10-26T10:07:44.557Z,8.07
2022-10-26T10:10:59.517Z,4.53
2022-10-26T10:14:10.074Z,4.22
2022-10-26T10:17:21.921Z,4.03
2022-10-26T10:20:31.087Z,3.95
2022-10-26T10:23:57.461Z,5.50
2022-10-26T10:27:25.101Z,3.05
2022-10-26T10:30:28.552Z,3.03
2022-10-26T10:33:40.633Z,2.35
2022-10-26T10:36:39.633Z,3.92
2022-10-26T10:39:40.944Z,4.53
2022-10-26T10:42:40.926Z,2.90
2022-10-26T10:45:38.824Z,4.15
2022-10-26T10:48:38.655Z,2.58
2022-10-26T10:54:39.487Z,2.67
2022-10-26T10:58:16.033Z,4.07
2022-10-26T11:01:22.451Z,3.72
2022-10-26T11:05:08.969Z,3.38
2022-10-26T11:08:43.599Z,4.35
2022-10-26T11:11:54.037Z,1.92
2022-10-26T11:15:02.019Z,2.92
2022-10-26T11:18:16.196Z,5.40
2022-10-26T11:21:25.203Z,5.05
2022-10-26T11:24:40.097Z,3.58
2022-10-26T11:27:46.164Z,5.97
2022-10-26T11:30:52.332Z,3.00
2022-10-26T11:34:19.919Z,4.60
2022-10-26T11:37:45.318Z,2.85
2022-10-26T11:41:14.483Z,4.97
2022-10-26T11:44:16.039Z,4.45
2022-10-26T11:47:22.586Z,4.10
2022-10-26T11:50:29.086Z,4.82
2022-10-26T11:53:35.974Z,4.22
2022-10-26T11:56:40.472Z,4.68
2022-10-26T11:59:45.688Z,3.83
2022-10-26T12:02:48.232Z,4.00
2022-10-26T12:05:51.752Z,5.47
2022-10-26T12:08:59.551Z,2.58
2022-10-26T12:12:11.234Z,3.58
2022-10-26T12:16:01.743Z,5.88
2022-10-26T12:19:02.463Z,4.25
2022-10-26T12:22:00.146Z,4.40
2022-10-26T12:25:15.444Z,5.68
2022-10-26T12:28:37.766Z,5.68
2022-10-26T12:31:37.634Z,2.75
2022-10-26T12:34:40.361Z,4.33
2022-10-26T12:37:38.179Z,2.90
2022-10-26T12:40:43.455Z,5.10
2022-10-26T12:46:47.896Z,10.43
2022-10-26T12:50:06.381Z,5.15
2022-10-26T12:53:12.678Z,4.78
2022-10-26T12:56:16.760Z,4.20
2022-10-26T13:00:00.163Z,4.15
2022-10-26T13:03:36.141Z,4.20
2022-10-26T13:06:59.847Z,6.03
2022-10-26T13:10:11.286Z,6.03
2022-10-26T13:13:08.972Z,4.75
2022-10-26T13:16:10.286Z,4.63
2022-10-26T13:19:32.508Z,5.50
2022-10-26T13:22:29.767Z,3.78
2022-10-26T13:25:30.554Z,5.57
2022-10-26T13:28:37.652Z,4.22
2022-10-26T13:31:53.663Z,3.90
2022-10-26T13:34:51.603Z,5.72
2022-10-26T13:37:52.070Z,5.63
2022-10-26T13:43:47.978Z,6.43
2022-10-26T13:46:46.631Z,6.03
2022-10-26T13:49:47.854Z,2.72
2022-10-26T13:52:54.027Z,4.57
2022-10-26T13:56:03.898Z,6.75
2022-10-26T13:59:12.493Z,6.50
2022-10-26T14:02:24.945Z,6.97
2022-10-26T14:05:23.132Z,6.70
2022-10-26T14:08:21.221Z,4.57
2022-10-26T14:11:22.869Z,3.95
2022-10-26T14:14:38.354Z,8.65
2022-10-26T14:17:35.741Z,4.32
2022-10-26T14:20:32.725Z,3.88
2022-10-26T14:23:36.336Z,4.35
2022-10-26T14:26:41.522Z,3.95
2022-10-26T14:29:38.533Z,4.10
2022-10-26T14:32:36.957Z,8.35
2022-10-26T14:35:36.166Z,4.43
2022-10-26T14:38:51.535Z,5.20
2022-10-26T14:41:50.996Z,9.00
2022-10-26T14:44:49.224Z,8.85
2022-10-26T14:47:50.046Z,11.02
2022-10-26T14:51:02.475Z,4.32
2022-10-26T14:54:01.193Z,7.28
2022-10-26T14:56:58.412Z,9.75
2022-10-26T15:00:15.490Z,4.22
2022-10-26T15:03:17.333Z,5.38
2022-10-26T15:06:45.036Z,5.10
2022-10-26T15:09:51.130Z,6.03
2022-10-26T15:12:48.042Z,8.00
2022-10-26T15:15:49.411Z,5.30
2022-10-26T15:18:52.645Z,5.90
2022-10-26T15:21:52.294Z,5.80
2022-10-26T15:24:54.257Z,5.78
2022-10-26T15:27:51.797Z,8.00
2022-10-26T15:31:11.330Z,6.00
2022-10-26T15:34:14.664Z,6.90
2022-10-26T15:37:11.513Z,10.52
2022-10-26T15:40:08.712Z,9.63
2022-10-26T15:43:05.546Z,5.85
2022-10-26T15:46:02.409Z,5.55
2022-10-26T15:49:05.179Z,5.90
2022-10-26T15:52:02.176Z,5.90
2022-10-26T15:54:59.155Z,6.40
2022-10-26T15:57:56.087Z,6.57
2022-10-26T16:00:53.020Z,3.22
2022-10-26T16:03:50.892Z,6.03
2022-10-26T16:06:47.780Z,6.90
2022-10-26T16:09:44.689Z,6.75
2022-10-26T16:12:41.791Z,6.47
2022-10-26T16:15:39.118Z,7.43
2022-10-26T16:18:36.009Z,8.27
2022-10-26T16:21:33.029Z,11.00
2022-10-26T16:24:34.304Z,6.10
2022-10-26T16:27:32.754Z,5.32
2022-10-26T16:30:30.829Z,7.45
2022-10-26T16:33:27.989Z,15.80
2022-10-26T16:36:24.823Z,9.57
2022-10-26T16:39:21.690Z,7.13
2022-10-26T16:42:18.537Z,6.10
2022-10-26T16:45:16.136Z,5.93
2022-10-26T16:48:16.046Z,4.20
2022-10-26T16:51:19.860Z,5.23
2022-10-26T16:54:16.830Z,5.28
2022-10-26T16:57:13.685Z,6.70
2022-10-26T17:00:11.014Z,4.50
2022-10-26T17:03:07.819Z,6.57
2022-10-26T17:06:07.752Z,7.53
2022-10-26T17:09:04.603Z,7.53
2022-10-26T17:12:02.238Z,15.75
2022-10-26T17:15:01.485Z,13.57
2022-10-26T17:17:58.517Z,14.98
2022-10-26T17:20:55.385Z,11.55
2022-10-26T17:23:52.284Z,15.05
2022-10-26T17:26:49.119Z,14.98
2022-10-26T17:29:45.937Z,9.30
2022-10-26T17:32:42.758Z,14.98
2022-10-26T17:35:39.623Z,15.20
2022-10-26T17:38:42.034Z,37.13
2022-10-26T17:41:38.904Z,34.17
2022-10-26T17:44:38.967Z,26.23
2022-10-26T17:47:36.013Z,36.20
2022-10-26T17:50:32.954Z,32.00
2022-10-26T17:53:30.294Z,53.10
2022-10-26T17:56:30.983Z,39.42
2022-10-26T18:02:24.951Z,63.25
2022-10-26T18:05:21.864Z,93.03
2022-10-26T18:08:19.022Z,73.90
2022-10-26T18:11:26.562Z,65.25
2022-10-26T18:14:24.480Z,68.05
2022-10-26T18:17:21.394Z,68.03
2022-10-26T18:20:19.982Z,30.50
2022-10-26T18:23:16.778Z,44.53
2022-10-26T18:26:23.935Z,30.52
2022-10-26T18:29:20.768Z,28.30
2022-10-26T18:32:17.612Z,36.10
2022-10-26T18:35:14.578Z,39.50
2022-10-26T18:38:11.357Z,33.63
2022-10-26T18:41:11.843Z,32.58
2022-10-26T18:44:09.495Z,42.53
2022-10-26T18:47:06.368Z,37.33
2022-10-26T18:50:03.233Z,25.55
2022-10-26T18:53:00.034Z,28.27
2022-10-26T18:56:02.247Z,24.48
2022-10-26T18:59:00.534Z,19.60
2022-10-26T19:01:57.445Z,25.13
2022-10-26T19:04:58.663Z,27.33
2022-10-26T19:07:55.480Z,40.53
2022-10-26T19:10:52.290Z,52.00
2022-10-26T19:13:50.272Z,40.15
2022-10-26T19:16:52.967Z,46.08
2022-10-26T19:19:49.813Z,32.53
2022-10-26T19:22:46.614Z,48.00
2022-10-26T19:25:43.413Z,145.65
2022-10-26T19:28:40.595Z,50.30
2022-10-26T19:31:37.804Z,47.35
2022-10-26T19:34:34.655Z,44.25
2022-10-26T19:37:31.497Z,38.30
2022-10-26T19:40:28.303Z,32.47
2022-10-26T19:43:30.537Z,28.75
2022-10-26T19:46:31.005Z,29.52
2022-10-26T19:49:27.992Z,22.17
2022-10-26T19:52:24.811Z,29.50
2022-10-26T19:55:21.688Z,34.75
2022-10-26T19:58:18.521Z,39.35
2022-10-26T20:01:15.811Z,41.08
2022-10-26T20:04:13.228Z,29.30
2022-10-26T20:07:10.125Z,40.03
2022-10-26T20:10:07.482Z,33.72
2022-10-26T20:13:04.303Z,28.80
2022-10-26T20:16:01.121Z,29.02
2022-10-26T20:19:01.539Z,21.45
2022-10-26T20:21:58.511Z,26.00
2022-10-26T20:24:55.322Z,22.23
2022-10-26T20:27:52.439Z,30.38
2022-10-26T20:30:49.922Z,18.67
2022-10-26T20:33:51.692Z,18.58
2022-10-26T20:36:48.483Z,23.75
2022-10-26T20:39:45.609Z,18.50
2022-10-26T20:42:42.864Z,15.57
2022-10-26T20:45:40.021Z,17.35
2022-10-26T20:48:38.670Z,23.63
2022-10-26T20:52:19.498Z,19.88
2022-10-26T20:55:53.294Z,16.20
2022-10-26T20:58:56.163Z,28.95
2022-10-26T21:01:53.070Z,16.10
2022-10-26T21:04:49.969Z,20.55
2022-10-26T21:07:47.054Z,12.93
2022-10-26T21:10:44.025Z,15.45
2022-10-26T21:13:41.545Z,16.63
2022-10-26T21:16:38.353Z,12.25
2022-10-26T21:19:35.497Z,19.30
2022-10-26T21:22:32.301Z,19.10
2022-10-26T21:25:29.283Z,14.32
2022-10-26T21:28:32.762Z,19.40
2022-10-26T21:31:30.004Z,19.58
2022-10-26T21:34:26.840Z,20.00
2022-10-26T21:37:26.629Z,20.88
2022-10-26T21:40:23.767Z,14.85
2022-10-26T21:43:20.582Z,16.98
2022-10-26T21:46:19.418Z,21.30
2022-10-26T21:49:16.239Z,17.25
2022-10-26T21:52:13.077Z,16.63
2022-10-26T21:55:09.897Z,16.75
2022-10-26T21:58:06.756Z,15.25
2022-10-26T22:01:13.576Z,16.48
2022-10-26T22:04:11.194Z,13.25
2022-10-26T22:07:08.068Z,13.95
2022-10-26T22:10:12.899Z,20.77
2022-10-26T22:13:09.735Z,21.90
2022-10-26T22:16:23.387Z,23.13
2022-10-26T22:19:20.270Z,10.05
2022-10-26T22:22:17.086Z,9.52
2022-10-26T22:25:14.012Z,13.25
2022-10-26T22:28:10.832Z,15.10
2022-10-26T22:31:12.818Z,15.50
2022-10-26T22:34:16.384Z,14.77
2022-10-26T22:37:13.231Z,14.98
2022-10-26T22:40:11.090Z,8.23
2022-10-26T22:43:07.889Z,15.82
2022-10-26T22:46:14.471Z,10.82
2022-10-26T22:49:11.944Z,11.77
2022-10-26T22:52:08.807Z,10.88
2022-10-26T22:55:06.187Z,14.23
2022-10-26T22:58:03.006Z,12.35
2022-10-26T23:01:05.910Z,10.85
2022-10-26T23:04:03.094Z,12.85
2022-10-26T23:06:59.927Z,12.90
2022-10-26T23:09:56.711Z,8.93
2022-10-26T23:12:54.057Z,9.93
2022-10-26T23:15:50.963Z,10.43
2022-10-26T23:18:48.337Z,9.57
2022-10-26T23:21:45.181Z,7.63
2022-10-26T23:24:42.002Z,11.05
2022-10-26T23:27:38.873Z,11.50
2022-10-26T23:30:36.603Z,9.43
2022-10-26T23:33:34.368Z,13.63
2022-10-26T23:36:31.198Z,10.15
2022-10-26T23:39:27.997Z,13.52
2022-10-26T23:42:24.848Z,8.15
2022-10-26T23:45:22.256Z,14.55
2022-10-26T23:48:19.535Z,13.68
2022-10-26T23:51:16.331Z,9.13
2022-10-26T23:54:13.185Z,9.23
2022-10-26T23:57:10.043Z,9.85
